createdAt,value
2022-12-31T00:00:36.512Z,12.70
2022-12-31T00:03:04.753Z,12.70
2022-12-31T00:05:33.874Z,12.70
2022-12-31T00:08:02.908Z,12.70
2022-12-31T00:10:34.426Z,12.70
2022-12-31T00:13:02.354Z,12.70
2022-12-31T00:15:30.564Z,12.70
2022-12-31T00:17:58.690Z,12.70
2022-12-31T00:20:26.684Z,12.70
2022-12-31T00:22:54.684Z,12.70
2022-12-31T00:25:22.825Z,12.70
2022-12-31T00:27:52.169Z,12.70
2022-12-31T00:30:20.242Z,12.60
2022-12-31T00:32:48.244Z,12.60
2022-12-31T00:35:16.296Z,12.60
2022-12-31T00:37:44.277Z,12.60
2022-12-31T00:40:13.056Z,12.60
2022-12-31T00:42:41.016Z,12.60
2022-12-31T00:45:11.484Z,12.60
2022-12-31T00:47:39.482Z,12.60
2022-12-31T00:50:08.344Z,12.60
2022-12-31T00:52:36.326Z,12.60
2022-12-31T00:55:04.496Z,12.60
2022-12-31T00:57:32.556Z,12.60
2022-12-31T01:00:00.807Z,12.60
2022-12-31T01:02:30.121Z,12.60
2022-12-31T01:04:58.147Z,12.60
2022-12-31T01:07:26.424Z,12.60
2022-12-31T01:09:54.781Z,12.60
2022-12-31T01:12:22.690Z,12.60
2022-12-31T01:14:50.802Z,12.60
2022-12-31T01:17:18.795Z,12.60
2022-12-31T01:19:48.161Z,12.60
2022-12-31T01:22:16.156Z,12.60
2022-12-31T01:24:44.138Z,12.50
2022-12-31T01:27:12.169Z,12.50
2022-12-31T01:29:40.193Z,12.50
2022-12-31T01:32:08.106Z,12.50
2022-12-31T01:34:36.083Z,12.50
2022-12-31T01:37:05.428Z,12.50
2022-12-31T01:39:33.397Z,12.50
2022-12-31T01:42:01.380Z,12.50
2022-12-31T01:44:53.274Z,12.40
2022-12-31T01:47:31.594Z,12.40
2022-12-31T01:50:04.616Z,12.40
2022-12-31T01:52:36.789Z,12.40
2022-12-31T01:55:09.696Z,12.40
2022-12-31T01:57:39.309Z,12.40
2022-12-31T02:00:09.956Z,12.40
2022-12-31T02:02:38.081Z,12.40
2022-12-31T02:05:13.496Z,12.40
2022-12-31T02:07:44.107Z,12.30
2022-12-31T02:10:12.294Z,12.30
2022-12-31T02:12:40.847Z,12.30
2022-12-31T02:15:09.752Z,12.30
2022-12-31T02:17:48.425Z,12.30
2022-12-31T02:20:49.645Z,12.30
2022-12-31T02:23:53.746Z,12.30
2022-12-31T02:26:42.991Z,12.20
2022-12-31T02:29:58.135Z,12.20
2022-12-31T02:32:32.784Z,12.10
2022-12-31T02:35:05.746Z,12.10
2022-12-31T02:37:34.881Z,12.00
2022-12-31T02:40:04.187Z,12.00
2022-12-31T02:42:32.280Z,12.00
2022-12-31T02:45:00.261Z,12.00
2022-12-31T02:47:39.687Z,12.00
2022-12-31T02:50:21.333Z,11.90
2022-12-31T02:52:59.991Z,11.90
2022-12-31T02:55:36.395Z,11.90
2022-12-31T02:58:14.621Z,11.90
2022-12-31T03:01:05.328Z,11.90
2022-12-31T03:03:35.533Z,11.90
2022-12-31T03:06:05.404Z,11.80
2022-12-31T03:08:54.156Z,11.80
2022-12-31T03:11:36.102Z,11.80
2022-12-31T03:14:04.052Z,11.80
2022-12-31T03:16:32.210Z,11.80
2022-12-31T03:19:19.205Z,11.80
2022-12-31T03:22:04.719Z,11.70
2022-12-31T03:24:50.351Z,11.70
2022-12-31T03:27:18.375Z,11.60
2022-12-31T03:29:46.382Z,11.70
2022-12-31T03:32:14.434Z,11.60
2022-12-31T03:34:43.746Z,11.70
2022-12-31T03:37:11.724Z,11.70
2022-12-31T03:39:39.842Z,11.70
2022-12-31T03:42:07.855Z,11.70
2022-12-31T03:44:37.508Z,11.70
2022-12-31T03:47:05.838Z,11.70
2022-12-31T03:49:33.849Z,11.60
2022-12-31T03:52:03.564Z,11.70
2022-12-31T03:54:31.598Z,11.70
2022-12-31T03:57:00.425Z,11.70
2022-12-31T03:59:28.664Z,11.70
2022-12-31T04:01:56.778Z,11.70
2022-12-31T04:04:24.870Z,11.70
2022-12-31T04:06:52.885Z,11.60
2022-12-31T04:09:22.260Z,11.70
2022-12-31T04:11:50.264Z,11.60
2022-12-31T04:14:18.420Z,11.60
2022-12-31T04:16:46.662Z,11.60
2022-12-31T04:19:14.783Z,11.60
2022-12-31T04:21:42.875Z,11.60
2022-12-31T04:24:11.265Z,11.70
2022-12-31T04:26:40.951Z,11.70
2022-12-31T04:29:08.882Z,11.70
2022-12-31T04:31:36.868Z,11.70
2022-12-31T04:34:04.946Z,11.70
2022-12-31T04:36:33.469Z,11.70
2022-12-31T04:39:01.420Z,11.70
2022-12-31T04:41:29.366Z,11.70
2022-12-31T04:44:00.145Z,11.80
2022-12-31T04:46:30.467Z,11.80
2022-12-31T04:48:58.935Z,11.70
2022-12-31T04:51:28.317Z,11.70
2022-12-31T04:53:56.590Z,11.70
2022-12-31T04:56:25.071Z,11.80
2022-12-31T04:58:53.163Z,11.80
2022-12-31T05:01:23.117Z,11.70
2022-12-31T05:03:51.717Z,11.80
2022-12-31T05:06:22.968Z,11.80
2022-12-31T05:08:51.713Z,11.80
2022-12-31T05:11:19.890Z,11.80
2022-12-31T05:13:48.039Z,11.80
2022-12-31T05:16:16.564Z,11.80
2022-12-31T05:18:45.919Z,11.80
2022-12-31T05:21:22.003Z,11.90
2022-12-31T05:23:50.408Z,11.80
2022-12-31T05:26:19.049Z,11.90
2022-12-31T05:28:47.040Z,11.90
2022-12-31T05:31:15.124Z,11.90
2022-12-31T05:33:43.181Z,11.90
2022-12-31T05:36:12.615Z,11.90
2022-12-31T05:38:40.613Z,12.00
2022-12-31T05:41:09.537Z,12.00
2022-12-31T05:43:37.582Z,12.00
2022-12-31T05:46:06.338Z,12.10
2022-12-31T05:48:34.349Z,12.00
2022-12-31T05:51:02.331Z,12.10
2022-12-31T05:53:31.652Z,12.10
2022-12-31T05:55:59.620Z,12.20
2022-12-31T05:58:27.581Z,12.20
2022-12-31T06:00:55.507Z,12.20
2022-12-31T06:03:23.617Z,12.20
2022-12-31T06:05:51.557Z,12.20
2022-12-31T06:08:19.530Z,12.20
2022-12-31T06:10:48.919Z,12.30
2022-12-31T06:13:16.831Z,12.30
2022-12-31T06:15:44.890Z,12.30
2022-12-31T06:18:12.867Z,12.30
2022-12-31T06:20:40.815Z,12.40
2022-12-31T06:23:08.852Z,12.40
2022-12-31T06:25:38.007Z,12.40
2022-12-31T06:28:07.625Z,12.50
2022-12-31T06:30:35.610Z,12.50
2022-12-31T06:33:03.651Z,12.60
2022-12-31T06:35:31.585Z,12.60
2022-12-31T06:37:59.813Z,12.70
2022-12-31T06:40:27.926Z,12.70
2022-12-31T06:42:59.896Z,12.70
2022-12-31T06:45:29.867Z,12.70
2022-12-31T06:47:57.928Z,12.80
2022-12-31T06:50:25.907Z,12.80
2022-12-31T06:52:54.037Z,12.80
2022-12-31T06:55:22.678Z,12.80
2022-12-31T06:57:51.075Z,12.90
2022-12-31T07:00:20.541Z,12.90
2022-12-31T07:03:17.526Z,12.90
2022-12-31T07:05:48.184Z,12.90
2022-12-31T07:08:41.234Z,13.00
2022-12-31T07:11:16.437Z,13.00
2022-12-31T07:14:17.494Z,13.10
2022-12-31T07:16:57.456Z,13.10
2022-12-31T07:19:37.587Z,13.10
2022-12-31T07:22:06.779Z,13.10
2022-12-31T07:24:35.282Z,13.10
2022-12-31T07:27:16.096Z,13.20
2022-12-31T07:29:56.961Z,13.10
2022-12-31T07:32:36.548Z,13.10
2022-12-31T07:35:13.926Z,13.20
2022-12-31T07:37:50.443Z,13.20
2022-12-31T07:40:25.166Z,13.20
2022-12-31T07:43:05.585Z,13.20
2022-12-31T07:45:42.117Z,13.20
2022-12-31T07:48:19.586Z,13.20
2022-12-31T07:50:49.792Z,13.20
2022-12-31T07:53:18.242Z,13.20
2022-12-31T07:55:46.324Z,13.10
2022-12-31T07:58:25.219Z,13.10
2022-12-31T08:00:55.326Z,13.20
2022-12-31T08:03:39.173Z,13.20
2022-12-31T08:06:16.278Z,13.20
2022-12-31T08:08:52.725Z,13.10
2022-12-31T08:11:29.210Z,13.10
2022-12-31T08:14:01.605Z,13.10
2022-12-31T08:16:30.898Z,13.10
2022-12-31T08:18:59.660Z,13.10
2022-12-31T08:21:40.647Z,13.00
2022-12-31T08:24:17.373Z,13.00
2022-12-31T08:26:53.957Z,13.00
2022-12-31T08:29:36.762Z,13.00
2022-12-31T08:32:14.001Z,13.00
2022-12-31T08:34:53.691Z,13.00
2022-12-31T08:37:33.865Z,13.10
2022-12-31T08:40:13.934Z,13.10
2022-12-31T08:42:51.027Z,13.10
2022-12-31T08:45:25.048Z,13.20
2022-12-31T08:48:00.551Z,13.20
2022-12-31T08:50:29.373Z,13.20
2022-12-31T08:52:59.593Z,13.30
2022-12-31T08:55:28.447Z,13.30
2022-12-31T08:58:09.479Z,13.30
2022-12-31T09:00:38.788Z,13.30
2022-12-31T09:03:27.155Z,13.30
2022-12-31T09:06:03.393Z,13.40
2022-12-31T09:08:41.437Z,13.40
2022-12-31T09:11:20.872Z,13.40
2022-12-31T09:14:08.073Z,13.40
2022-12-31T09:16:47.962Z,13.40
2022-12-31T09:19:15.953Z,13.50
2022-12-31T09:21:45.555Z,13.50
2022-12-31T09:24:16.513Z,13.50
2022-12-31T09:26:56.587Z,13.50
2022-12-31T09:29:36.609Z,13.50
2022-12-31T09:32:10.660Z,13.60
2022-12-31T09:34:44.428Z,13.60
2022-12-31T09:37:16.745Z,13.60
2022-12-31T09:39:47.817Z,13.60
2022-12-31T09:42:38.092Z,13.60
2022-12-31T09:45:31.981Z,13.50
2022-12-31T09:48:29.846Z,13.60
2022-12-31T09:51:32.069Z,13.60
2022-12-31T09:54:20.427Z,13.60
2022-12-31T09:57:05.977Z,13.60
2022-12-31T09:59:41.663Z,13.60
2022-12-31T10:02:21.367Z,13.70
2022-12-31T10:05:21.862Z,13.70
2022-12-31T10:08:00.355Z,13.70
2022-12-31T10:10:35.635Z,13.80
2022-12-31T10:13:17.297Z,13.80
2022-12-31T10:16:16.837Z,13.80
2022-12-31T10:18:59.205Z,13.90
2022-12-31T10:21:43.358Z,13.90
2022-12-31T10:24:55.559Z,13.90
2022-12-31T10:27:38.748Z,13.90
2022-12-31T10:30:16.238Z,14.00
2022-12-31T10:32:46.363Z,14.00
2022-12-31T10:35:26.072Z,14.00
2022-12-31T10:38:02.151Z,14.00
2022-12-31T10:40:46.090Z,14.00
2022-12-31T10:43:41.471Z,14.00
2022-12-31T10:46:39.222Z,14.10
2022-12-31T10:49:49.258Z,14.10
2022-12-31T10:52:44.600Z,14.10
2022-12-31T10:55:34.578Z,14.10
2022-12-31T10:58:29.516Z,14.10
2022-12-31T11:01:08.413Z,14.10
2022-12-31T11:04:12.127Z,14.10
2022-12-31T11:07:13.966Z,14.10
2022-12-31T11:10:00.603Z,14.00
2022-12-31T11:12:48.753Z,14.00
2022-12-31T11:15:35.203Z,14.10
2022-12-31T11:18:19.188Z,14.00
2022-12-31T11:21:07.935Z,14.00
2022-12-31T11:23:48.357Z,14.00
2022-12-31T11:26:26.167Z,14.00
2022-12-31T11:29:06.229Z,14.00
2022-12-31T11:31:58.071Z,14.00
2022-12-31T11:34:52.695Z,14.00
2022-12-31T11:37:32.337Z,14.00
2022-12-31T11:40:16.528Z,14.10
2022-12-31T11:42:52.899Z,14.10
2022-12-31T11:45:38.651Z,14.10
2022-12-31T11:48:32.434Z,14.10
2022-12-31T11:51:16.420Z,14.10
2022-12-31T11:54:15.805Z,14.20
2022-12-31T11:56:52.214Z,14.20
2022-12-31T11:59:20.258Z,14.20
2022-12-31T12:01:53.656Z,14.20
2022-12-31T12:04:21.714Z,14.30
2022-12-31T12:06:49.861Z,14.20
2022-12-31T12:09:26.481Z,14.30
2022-12-31T12:12:02.014Z,14.30
2022-12-31T12:14:33.551Z,14.30
2022-12-31T12:17:05.426Z,14.30
2022-12-31T12:19:35.424Z,14.30
2022-12-31T12:22:12.355Z,14.30
2022-12-31T12:24:40.392Z,14.30
2022-12-31T12:27:23.203Z,14.30
2022-12-31T12:29:51.146Z,14.30
2022-12-31T12:32:22.240Z,14.30
2022-12-31T12:34:50.424Z,14.30
2022-12-31T12:37:28.643Z,14.30
2022-12-31T12:39:58.382Z,14.30
2022-12-31T12:42:28.748Z,14.30
2022-12-31T12:45:05.816Z,14.30
2022-12-31T12:47:35.226Z,14.30
2022-12-31T12:50:04.362Z,14.30
2022-12-31T12:52:57.788Z,14.30
2022-12-31T12:55:34.553Z,14.30
2022-12-31T12:58:17.162Z,14.30
2022-12-31T13:00:52.897Z,14.30
2022-12-31T13:04:32.596Z,14.30
2022-12-31T13:06:59.569Z,14.30
2022-12-31T13:09:38.339Z,14.30
2022-12-31T13:12:15.854Z,14.30
2022-12-31T13:14:54.440Z,14.30
2022-12-31T13:17:36.914Z,14.30
2022-12-31T13:20:12.024Z,14.30
2022-12-31T13:22:44.377Z,14.30
2022-12-31T13:25:23.488Z,14.30
2022-12-31T13:27:54.931Z,14.30
2022-12-31T13:30:28.483Z,14.30
2022-12-31T13:33:03.070Z,14.20
2022-12-31T13:35:34.949Z,14.20
2022-12-31T13:38:06.807Z,14.30
2022-12-31T13:40:45.919Z,14.30
2022-12-31T13:43:20.808Z,14.30
2022-12-31T13:46:00.182Z,14.30
2022-12-31T13:48:35.494Z,14.30
2022-12-31T13:51:11.823Z,14.20
2022-12-31T13:53:46.848Z,14.20
2022-12-31T13:56:20.156Z,14.20
2022-12-31T13:58:53.201Z,14.20
2022-12-31T14:01:33.836Z,14.10
2022-12-31T14:04:09.871Z,14.10
2022-12-31T14:06:44.495Z,14.10
2022-12-31T14:09:20.626Z,14.10
2022-12-31T14:12:02.150Z,14.10
2022-12-31T14:14:42.164Z,14.10
2022-12-31T14:17:19.065Z,14.10
2022-12-31T14:20:03.735Z,14.00
2022-12-31T14:22:38.824Z,14.00
2022-12-31T14:25:18.796Z,14.00
2022-12-31T14:27:48.329Z,14.00
2022-12-31T14:30:18.931Z,14.00
2022-12-31T14:33:01.218Z,13.90
2022-12-31T14:35:40.354Z,14.00
2022-12-31T14:38:18.163Z,14.00
2022-12-31T14:40:55.703Z,14.00
2022-12-31T14:43:35.416Z,13.90
2022-12-31T14:46:13.557Z,13.90
2022-12-31T14:48:53.390Z,13.90
2022-12-31T14:51:21.393Z,13.90
2022-12-31T14:53:54.513Z,13.90
2022-12-31T14:56:31.092Z,13.90
2022-12-31T14:59:00.768Z,13.90
2022-12-31T15:01:29.656Z,13.90
2022-12-31T15:03:59.549Z,13.90
2022-12-31T15:06:51.851Z,13.90
2022-12-31T15:09:35.652Z,13.90
2022-12-31T15:12:17.802Z,13.90
2022-12-31T15:15:16.113Z,13.90
2022-12-31T15:17:55.063Z,13.90
2022-12-31T15:20:51.271Z,13.90
2022-12-31T15:23:23.319Z,13.90
2022-12-31T15:25:57.313Z,13.90
2022-12-31T15:28:35.790Z,13.90
2022-12-31T15:31:10.739Z,13.90
2022-12-31T15:33:42.999Z,13.90
2022-12-31T15:36:16.759Z,13.90
2022-12-31T15:38:45.395Z,13.90
2022-12-31T15:41:27.528Z,13.90
2022-12-31T15:44:01.477Z,13.90
2022-12-31T15:46:32.564Z,14.00
2022-12-31T15:49:07.888Z,13.90
2022-12-31T15:51:47.485Z,13.90
2022-12-31T15:54:25.258Z,13.90
2022-12-31T15:56:55.029Z,13.90
2022-12-31T15:59:26.096Z,13.80
2022-12-31T16:01:57.057Z,13.80
2022-12-31T16:04:27.591Z,13.80
2022-12-31T16:07:01.340Z,13.90
2022-12-31T16:09:31.433Z,13.80
2022-12-31T16:12:01.277Z,13.80
2022-12-31T16:14:36.117Z,13.80
2022-12-31T16:17:05.013Z,13.80
2022-12-31T16:19:36.642Z,13.80
2022-12-31T16:22:14.609Z,13.70
2022-12-31T16:25:10.800Z,13.70
2022-12-31T16:27:34.630Z,13.70
2022-12-31T16:30:07.420Z,13.70
2022-12-31T16:32:36.275Z,13.70
2022-12-31T16:35:10.093Z,13.70
2022-12-31T16:37:44.752Z,13.70
2022-12-31T16:40:22.184Z,13.70
2022-12-31T16:42:51.775Z,13.60
2022-12-31T16:45:36.324Z,13.60
2022-12-31T16:48:16.585Z,13.60
2022-12-31T16:50:46.305Z,13.60
2022-12-31T16:53:19.281Z,13.60
2022-12-31T16:55:54.343Z,13.70
2022-12-31T16:58:28.025Z,13.60
2022-12-31T17:01:02.331Z,13.60
2022-12-31T17:03:30.753Z,13.50
2022-12-31T17:06:13.697Z,13.60
2022-12-31T17:08:45.207Z,13.50
2022-12-31T17:11:23.559Z,13.50
2022-12-31T17:13:57.192Z,13.50
2022-12-31T17:16:26.279Z,13.50
2022-12-31T17:18:54.507Z,13.50
2022-12-31T17:21:26.264Z,13.50
2022-12-31T17:23:58.776Z,13.50
2022-12-31T17:26:29.629Z,13.50
2022-12-31T17:28:59.656Z,13.50
2022-12-31T17:31:31.082Z,13.50
2022-12-31T17:34:22.073Z,13.50
2022-12-31T17:37:00.326Z,13.50
2022-12-31T17:39:43.407Z,13.50
2022-12-31T17:42:12.975Z,13.50
2022-12-31T17:44:44.120Z,13.50
2022-12-31T17:47:14.270Z,13.50
2022-12-31T17:49:45.892Z,13.50
2022-12-31T17:52:15.538Z,13.50
2022-12-31T17:54:45.019Z,13.50
2022-12-31T17:57:25.554Z,13.50
2022-12-31T17:59:53.811Z,13.40
2022-12-31T18:02:21.815Z,13.50
2022-12-31T18:04:49.878Z,13.40
2022-12-31T18:07:17.878Z,13.40
2022-12-31T18:09:47.284Z,13.40
2022-12-31T18:12:16.512Z,13.40
2022-12-31T18:14:46.921Z,13.40
2022-12-31T18:17:17.272Z,13.40
2022-12-31T18:20:04.112Z,13.40
2022-12-31T18:22:33.524Z,13.40
2022-12-31T18:25:03.069Z,13.30
2022-12-31T18:27:32.379Z,13.40
2022-12-31T18:30:04.858Z,13.40
2022-12-31T18:32:34.697Z,13.30
2022-12-31T18:35:03.257Z,13.30
2022-12-31T18:37:32.243Z,13.30
2022-12-31T18:40:00.245Z,13.30
2022-12-31T18:42:29.968Z,13.30
2022-12-31T18:44:57.961Z,13.30
2022-12-31T18:47:25.938Z,13.30
2022-12-31T18:49:53.893Z,13.30
2022-12-31T18:52:25.121Z,13.30
2022-12-31T18:54:53.191Z,13.30
2022-12-31T18:57:21.148Z,13.30
2022-12-31T18:59:50.568Z,13.30
2022-12-31T19:02:21.034Z,13.30
2022-12-31T19:04:49.321Z,13.30
2022-12-31T19:07:17.704Z,13.20
2022-12-31T19:09:47.150Z,13.20
2022-12-31T19:12:16.426Z,13.20
2022-12-31T19:14:45.490Z,13.20
2022-12-31T19:17:14.905Z,13.20
2022-12-31T19:19:43.139Z,13.20
2022-12-31T19:22:15.740Z,13.20
2022-12-31T19:24:43.795Z,13.10
2022-12-31T19:27:12.149Z,13.10
2022-12-31T19:29:40.314Z,13.10
2022-12-31T19:32:08.516Z,13.10
2022-12-31T19:34:38.001Z,13.10
2022-12-31T19:37:06.170Z,13.10
2022-12-31T19:39:34.409Z,13.10
2022-12-31T19:42:02.631Z,13.10
2022-12-31T19:44:30.691Z,13.10
2022-12-31T19:47:01.390Z,13.10
2022-12-31T19:49:29.764Z,13.10
2022-12-31T19:51:59.595Z,13.10
2022-12-31T19:54:27.690Z,13.00
2022-12-31T19:56:55.773Z,13.10
2022-12-31T19:59:23.903Z,13.10
2022-12-31T20:01:52.179Z,13.00
2022-12-31T20:04:21.702Z,13.00
2022-12-31T20:06:50.000Z,13.00
2022-12-31T20:09:19.700Z,13.00
2022-12-31T20:11:47.893Z,13.10
2022-12-31T20:14:16.477Z,13.00
2022-12-31T20:16:44.999Z,13.00
2022-12-31T20:19:13.247Z,13.00
2022-12-31T20:21:41.926Z,13.00
2022-12-31T20:24:10.164Z,13.00
2022-12-31T20:26:39.996Z,13.00
2022-12-31T20:29:08.627Z,13.00
2022-12-31T20:31:37.086Z,13.00
2022-12-31T20:34:05.209Z,13.00
2022-12-31T20:36:33.797Z,13.00
2022-12-31T20:39:01.841Z,13.00
2022-12-31T20:41:32.199Z,13.00
2022-12-31T20:44:01.992Z,13.00
2022-12-31T20:46:31.672Z,13.00
2022-12-31T20:49:02.899Z,13.00
2022-12-31T20:51:34.881Z,13.00
2022-12-31T20:54:05.704Z,13.00
2022-12-31T20:56:36.047Z,13.00
2022-12-31T20:59:06.578Z,13.10
2022-12-31T21:01:55.587Z,13.00
2022-12-31T21:04:23.090Z,13.00
2022-12-31T21:06:54.884Z,13.00
2022-12-31T21:09:23.009Z,13.10
2022-12-31T21:12:08.859Z,13.10
2022-12-31T21:14:42.925Z,13.10
2022-12-31T21:17:12.992Z,13.10
2022-12-31T21:19:41.090Z,13.10
2022-12-31T21:22:09.329Z,13.20
2022-12-31T21:24:39.286Z,13.10
2022-12-31T21:27:07.527Z,13.10
2022-12-31T21:29:55.731Z,13.10
2022-12-31T21:32:28.433Z,13.10
2022-12-31T21:35:31.522Z,13.10
2022-12-31T21:37:58.590Z,13.10
2022-12-31T21:40:29.018Z,13.10
2022-12-31T21:42:56.990Z,13.10
2022-12-31T21:45:26.415Z,13.10
2022-12-31T21:48:11.832Z,13.10
2022-12-31T21:50:39.858Z,13.10
2022-12-31T21:53:07.774Z,13.10
2022-12-31T21:55:56.763Z,13.10
2022-12-31T21:58:27.026Z,13.10
2022-12-31T22:01:15.946Z,13.00
2022-12-31T22:03:44.396Z,13.00
2022-12-31T22:06:16.454Z,13.00
2022-12-31T22:08:45.853Z,13.00
2022-12-31T22:11:15.148Z,13.00
2022-12-31T22:13:44.105Z,13.00
2022-12-31T22:16:14.195Z,12.90
2022-12-31T22:18:44.157Z,12.90
2022-12-31T22:21:19.029Z,12.90
2022-12-31T22:23:49.451Z,13.00
2022-12-31T22:26:20.059Z,12.90
2022-12-31T22:28:49.012Z,12.90
2022-12-31T22:31:19.902Z,12.90
2022-12-31T22:33:48.876Z,13.00
2022-12-31T22:36:19.699Z,12.90
2022-12-31T22:38:47.900Z,13.00
2022-12-31T22:41:17.903Z,12.90
2022-12-31T22:43:48.102Z,12.90
2022-12-31T22:46:20.162Z,12.90
2022-12-31T22:48:48.635Z,12.90
2022-12-31T22:51:17.554Z,12.90
2022-12-31T22:53:46.358Z,13.00
2022-12-31T22:56:16.528Z,13.00
2022-12-31T22:58:45.230Z,12.90
2022-12-31T23:01:20.314Z,13.00
2022-12-31T23:03:49.333Z,13.00
2022-12-31T23:06:17.854Z,13.00
2022-12-31T23:09:06.737Z,13.00
2022-12-31T23:11:39.005Z,13.00
2022-12-31T23:14:25.790Z,13.00
2022-12-31T23:17:31.514Z,13.00
2022-12-31T23:20:17.862Z,13.00
2022-12-31T23:23:03.799Z,13.10
2022-12-31T23:25:32.867Z,13.00
2022-12-31T23:28:00.964Z,13.10
2022-12-31T23:30:28.997Z,13.00
2022-12-31T23:32:58.353Z,13.10
2022-12-31T23:35:26.411Z,13.00
2022-12-31T23:37:54.333Z,13.00
2022-12-31T23:40:22.468Z,13.00
2022-12-31T23:42:50.742Z,13.10
2022-12-31T23:45:18.971Z,13.10
2022-12-31T23:47:47.033Z,13.10
2022-12-31T23:50:16.401Z,13.10
2022-12-31T23:52:44.326Z,13.10
2022-12-31T23:55:12.474Z,13.10
2022-12-31T23:57:40.472Z,13.10
